sensor_id;sensor_type;location;lat;lon;timestamp;pressure;altitude;pressure_sealevel;temperature;humidity
498;BME280;39559;48.630;9.162;2023-04-07T00:01:49;97457.72;;;4.25;100.00
498;BME280;39559;48.630;9.162;2023-04-07T00:04:15;97457.50;;;4.37;100.00
498;BME280;39559;48.630;9.162;2023-04-07T00:06:41;97461.69;;;4.43;100.00
498;BME280;39559;48.630;9.162;2023-04-07T00:09:08;97459.41;;;4.28;100.00
498;BME280;39559;48.630;9.162;2023-04-07T00:11:35;97465.06;;;4.45;100.00
498;BME280;39559;48.630;9.162;2023-04-07T00:14:01;97467.63;;;4.47;100.00
498;BME280;39559;48.630;9.162;2023-04-07T00:16:27;97461.72;;;4.41;100.00
498;BME280;39559;48.630;9.162;2023-04-07T00:18:53;97465.00;;;4.50;100.00
498;BME280;39559;48.630;9.162;2023-04-07T00:21:18;97458.25;;;4.44;100.00
498;BME280;39559;48.630;9.162;2023-04-07T00:25:48;97448.84;;;4.41;100.00
498;BME280;39559;48.630;9.162;2023-04-07T00:28:14;97455.84;;;4.35;100.00
498;BME280;39559;48.630;9.162;2023-04-07T00:30:40;97456.91;;;4.23;100.00
498;BME280;39559;48.630;9.162;2023-04-07T00:33:05;97447.44;;;4.25;100.00
498;BME280;39559;48.630;9.162;2023-04-07T00:35:31;97451.69;;;4.28;100.00
498;BME280;39559;48.630;9.162;2023-04-07T00:37:56;97443.22;;;4.22;100.00
498;BME280;39559;48.630;9.162;2023-04-07T00:40:22;97440.31;;;4.39;100.00
498;BME280;39559;48.630;9.162;2023-04-07T00:42:48;97430.97;;;4.37;100.00
498;BME280;39559;48.630;9.162;2023-04-07T00:45:13;97438.56;;;4.41;100.00
498;BME280;39559;48.630;9.162;2023-04-07T00:49:47;97432.13;;;4.19;100.00
498;BME280;39559;48.630;9.162;2023-04-07T00:52:13;97428.50;;;4.29;100.00
498;BME280;39559;48.630;9.162;2023-04-07T00:54:41;97430.97;;;4.37;100.00
498;BME280;39559;48.630;9.162;2023-04-07T00:57:06;97420.94;;;4.21;100.00
498;BME280;39559;48.630;9.162;2023-04-07T00:59:32;97419.84;;;4.35;100.00
498;BME280;39559;48.630;9.162;2023-04-07T01:02:10;97420.53;;;4.43;100.00
498;BME280;39559;48.630;9.162;2023-04-07T01:07:22;97406.81;;;4.44;100.00
498;BME280;39559;48.630;9.162;2023-04-07T01:09:56;97401.38;;;4.14;100.00
498;BME280;39559;48.630;9.162;2023-04-07T01:13:50;97395.38;;;4.14;100.00
498;BME280;39559;48.630;9.162;2023-04-07T01:16:38;97395.38;;;4.15;100.00
498;BME280;39559;48.630;9.162;2023-04-07T01:21:54;97392.06;;;4.07;100.00
498;BME280;39559;48.630;9.162;2023-04-07T01:26:50;97383.03;;;3.86;100.00
498;BME280;39559;48.630;9.162;2023-04-07T01:29:29;97387.09;;;3.99;100.00
498;BME280;39559;48.630;9.162;2023-04-07T01:31:59;97388.88;;;3.94;100.00
498;BME280;39559;48.630;9.162;2023-04-07T01:34:28;97384.00;;;3.80;100.00
498;BME280;39559;48.630;9.162;2023-04-07T01:37:46;97387.19;;;3.95;100.00
498;BME280;39559;48.630;9.162;2023-04-07T01:40:13;97383.13;;;3.80;100.00
498;BME280;39559;48.630;9.162;2023-04-07T01:42:41;97380.53;;;3.81;100.00
498;BME280;39559;48.630;9.162;2023-04-07T01:45:07;97386.28;;;3.96;100.00
498;BME280;39559;48.630;9.162;2023-04-07T01:47:37;97377.94;;;3.83;100.00
498;BME280;39559;48.630;9.162;2023-04-07T01:50:04;97376.38;;;3.74;100.00
498;BME280;39559;48.630;9.162;2023-04-07T01:52:32;97379.72;;;3.79;100.00
498;BME280;39559;48.630;9.162;2023-04-07T01:54:59;97369.66;;;3.67;100.00
498;BME280;39559;48.630;9.162;2023-04-07T01:57:25;97371.84;;;3.89;100.00
498;BME280;39559;48.630;9.162;2023-04-07T02:01:45;97369.09;;;3.99;100.00
498;BME280;39559;48.630;9.162;2023-04-07T02:04:59;97370.88;;;3.96;100.00
498;BME280;39559;48.630;9.162;2023-04-07T02:07:40;97372.50;;;4.00;100.00
498;BME280;39559;48.630;9.162;2023-04-07T02:10:09;97375.00;;;4.04;100.00
498;BME280;39559;48.630;9.162;2023-04-07T02:12:37;97359.59;;;4.03;100.00
498;BME280;39559;48.630;9.162;2023-04-07T02:15:05;97356.78;;;4.18;100.00
498;BME280;39559;48.630;9.162;2023-04-07T02:17:35;97361.72;;;4.28;100.00
498;BME280;39559;48.630;9.162;2023-04-07T02:20:02;97356.25;;;4.45;100.00
498;BME280;39559;48.630;9.162;2023-04-07T02:22:29;97355.63;;;4.33;100.00
498;BME280;39559;48.630;9.162;2023-04-07T02:25:44;97344.56;;;4.30;100.00
498;BME280;39559;48.630;9.162;2023-04-07T02:28:10;97356.19;;;4.04;100.00
498;BME280;39559;48.630;9.162;2023-04-07T02:30:35;97347.63;;;4.02;100.00
498;BME280;39559;48.630;9.162;2023-04-07T02:33:01;97341.56;;;4.06;100.00
498;BME280;39559;48.630;9.162;2023-04-07T02:35:27;97338.78;;;4.18;100.00
498;BME280;39559;48.630;9.162;2023-04-07T02:37:52;97339.59;;;4.20;100.00
498;BME280;39559;48.630;9.162;2023-04-07T02:40:18;97344.25;;;4.00;100.00
498;BME280;39559;48.630;9.162;2023-04-07T02:42:44;97343.28;;;4.06;100.00
498;BME280;39559;48.630;9.162;2023-04-07T02:45:10;97337.31;;;4.03;100.00
498;BME280;39559;48.630;9.162;2023-04-07T02:49:43;97335.25;;;4.24;100.00
498;BME280;39559;48.630;9.162;2023-04-07T02:52:10;97333.75;;;4.12;100.00
498;BME280;39559;48.630;9.162;2023-04-07T02:54:35;97334.94;;;3.94;100.00
498;BME280;39559;48.630;9.162;2023-04-07T02:57:01;97328.38;;;3.78;100.00
498;BME280;39559;48.630;9.162;2023-04-07T02:59:27;97319.03;;;3.75;100.00
498;BME280;39559;48.630;9.162;2023-04-07T03:01:52;97318.88;;;3.83;100.00
498;BME280;39559;48.630;9.162;2023-04-07T03:04:18;97317.38;;;4.16;100.00
498;BME280;39559;48.630;9.162;2023-04-07T03:06:43;97316.16;;;4.34;100.00
498;BME280;39559;48.630;9.162;2023-04-07T03:09:09;97317.03;;;4.35;100.00
498;BME280;39559;48.630;9.162;2023-04-07T03:13:43;97319.25;;;4.08;100.00
498;BME280;39559;48.630;9.162;2023-04-07T03:16:08;97310.00;;;3.99;100.00
498;BME280;39559;48.630;9.162;2023-04-07T03:18:34;97312.63;;;3.96;100.00
498;BME280;39559;48.630;9.162;2023-04-07T03:21:00;97310.91;;;3.97;100.00
498;BME280;39559;48.630;9.162;2023-04-07T03:23:25;97316.34;;;3.81;100.00
498;BME280;39559;48.630;9.162;2023-04-07T03:25:53;97301.38;;;4.02;100.00
498;BME280;39559;48.630;9.162;2023-04-07T03:28:19;97296.78;;;4.18;100.00
498;BME280;39559;48.630;9.162;2023-04-07T03:30:44;97294.38;;;4.52;100.00
498;BME280;39559;48.630;9.162;2023-04-07T03:33:10;97295.84;;;4.22;100.00
498;BME280;39559;48.630;9.162;2023-04-07T03:37:41;97303.91;;;4.05;100.00
498;BME280;39559;48.630;9.162;2023-04-07T03:40:07;97297.50;;;3.81;100.00
498;BME280;39559;48.630;9.162;2023-04-07T03:42:33;97295.25;;;3.64;100.00
498;BME280;39559;48.630;9.162;2023-04-07T03:44:58;97290.13;;;3.64;100.00
498;BME280;39559;48.630;9.162;2023-04-07T03:47:24;97294.91;;;3.82;100.00
498;BME280;39559;48.630;9.162;2023-04-07T03:49:50;97292.91;;;3.98;100.00
498;BME280;39559;48.630;9.162;2023-04-07T03:52:15;97296.94;;;4.10;100.00
498;BME280;39559;48.630;9.162;2023-04-07T03:54:42;97293.97;;;3.88;100.00
498;BME280;39559;48.630;9.162;2023-04-07T03:57:07;97294.69;;;3.95;100.00
498;BME280;39559;48.630;9.162;2023-04-07T04:01:43;97284.91;;;3.67;100.00
498;BME280;39559;48.630;9.162;2023-04-07T04:04:09;97282.06;;;3.82;100.00
498;BME280;39559;48.630;9.162;2023-04-07T04:06:35;97283.69;;;3.88;100.00
498;BME280;39559;48.630;9.162;2023-04-07T04:09:00;97286.13;;;3.93;100.00
498;BME280;39559;48.630;9.162;2023-04-07T04:11:26;97281.75;;;3.99;100.00
498;BME280;39559;48.630;9.162;2023-04-07T04:13:51;97277.34;;;4.06;100.00
498;BME280;39559;48.630;9.162;2023-04-07T04:16:17;97272.63;;;3.84;100.00
498;BME280;39559;48.630;9.162;2023-04-07T04:18:42;97270.03;;;3.84;100.00
498;BME280;39559;48.630;9.162;2023-04-07T04:21:08;97271.66;;;3.89;100.00
498;BME280;39559;48.630;9.162;2023-04-07T04:25:41;97265.13;;;3.72;100.00
498;BME280;39559;48.630;9.162;2023-04-07T04:28:07;97269.28;;;3.79;100.00
498;BME280;39559;48.630;9.162;2023-04-07T04:30:32;97270.22;;;3.75;100.00
498;BME280;39559;48.630;9.162;2023-04-07T04:32:58;97269.09;;;3.89;100.00
498;BME280;39559;48.630;9.162;2023-04-07T04:35:23;97266.88;;;3.70;100.00
498;BME280;39559;48.630;9.162;2023-04-07T04:37:50;97270.94;;;3.37;100.00
498;BME280;39559;48.630;9.162;2023-04-07T04:40:15;97265.97;;;3.26;100.00
498;BME280;39559;48.630;9.162;2023-04-07T04:42:41;97275.31;;;3.29;100.00
498;BME280;39559;48.630;9.162;2023-04-07T04:45:07;97272.09;;;3.19;100.00
498;BME280;39559;48.630;9.162;2023-04-07T04:49:41;97270.16;;;3.30;100.00
498;BME280;39559;48.630;9.162;2023-04-07T04:52:06;97269.88;;;3.45;100.00
498;BME280;39559;48.630;9.162;2023-04-07T04:54:32;97276.59;;;3.54;100.00
498;BME280;39559;48.630;9.162;2023-04-07T04:56:58;97275.75;;;3.54;100.00
498;BME280;39559;48.630;9.162;2023-04-07T04:59:24;97278.19;;;3.60;100.00
498;BME280;39559;48.630;9.162;2023-04-07T05:01:51;97272.84;;;3.72;100.00
498;BME280;39559;48.630;9.162;2023-04-07T05:04:16;97272.00;;;3.72;100.00
498;BME280;39559;48.630;9.162;2023-04-07T05:06:43;97268.53;;;3.74;100.00
498;BME280;39559;48.630;9.162;2023-04-07T05:09:08;97273.94;;;3.59;100.00
498;BME280;39559;48.630;9.162;2023-04-07T05:13:40;97278.81;;;3.73;100.00
498;BME280;39559;48.630;9.162;2023-04-07T05:16:06;97279.00;;;3.62;100.00
498;BME280;39559;48.630;9.162;2023-04-07T05:18:32;97286.78;;;3.60;100.00
498;BME280;39559;48.630;9.162;2023-04-07T05:20:57;97290.44;;;3.45;100.00
498;BME280;39559;48.630;9.162;2023-04-07T05:23:23;97288.16;;;3.29;100.00
498;BME280;39559;48.630;9.162;2023-04-07T05:25:49;97290.72;;;3.30;100.00
498;BME280;39559;48.630;9.162;2023-04-07T05:28:14;97289.50;;;3.51;100.00
498;BME280;39559;48.630;9.162;2023-04-07T05:30:40;97280.31;;;3.36;100.00
498;BME280;39559;48.630;9.162;2023-04-07T05:33:05;97289.72;;;3.39;100.00
498;BME280;39559;48.630;9.162;2023-04-07T05:37:39;97280.16;;;3.45;100.00
498;BME280;39559;48.630;9.162;2023-04-07T05:40:06;97281.75;;;3.53;100.00
498;BME280;39559;48.630;9.162;2023-04-07T05:42:32;97279.06;;;3.60;100.00
498;BME280;39559;48.630;9.162;2023-04-07T05:44:57;97286.88;;;3.53;100.00
498;BME280;39559;48.630;9.162;2023-04-07T05:47:23;97280.91;;;3.99;100.00
498;BME280;39559;48.630;9.162;2023-04-07T05:49:49;97282.22;;;4.18;100.00
498;BME280;39559;48.630;9.162;2023-04-07T05:52:14;97281.00;;;3.93;100.00
498;BME280;39559;48.630;9.162;2023-04-07T05:54:40;97282.75;;;3.91;100.00
498;BME280;39559;48.630;9.162;2023-04-07T05:57:06;97272.88;;;3.71;100.00
498;BME280;39559;48.630;9.162;2023-04-07T06:01:41;97282.38;;;3.65;100.00
498;BME280;39559;48.630;9.162;2023-04-07T06:04:06;97277.94;;;3.74;100.00
498;BME280;39559;48.630;9.162;2023-04-07T06:06:32;97275.81;;;3.96;100.00
498;BME280;39559;48.630;9.162;2023-04-07T06:08:57;97275.53;;;4.11;100.00
498;BME280;39559;48.630;9.162;2023-04-07T06:11:25;97277.94;;;4.19;100.00
498;BME280;39559;48.630;9.162;2023-04-07T06:13:50;97283.84;;;4.24;100.00
498;BME280;39559;48.630;9.162;2023-04-07T06:16:16;97281.06;;;4.33;100.00
498;BME280;39559;48.630;9.162;2023-04-07T06:18:41;97281.84;;;4.37;100.00
498;BME280;39559;48.630;9.162;2023-04-07T06:21:07;97281.97;;;4.31;100.00
498;BME280;39559;48.630;9.162;2023-04-07T06:25:39;97289.88;;;4.21;100.00
498;BME280;39559;48.630;9.162;2023-04-07T06:28:09;97289.69;;;4.29;100.00
498;BME280;39559;48.630;9.162;2023-04-07T06:30:34;97284.25;;;4.45;100.00
498;BME280;39559;48.630;9.162;2023-04-07T06:33:00;97294.16;;;4.61;100.00
498;BME280;39559;48.630;9.162;2023-04-07T06:35:26;97293.28;;;4.63;100.00
498;BME280;39559;48.630;9.162;2023-04-07T06:37:52;97283.59;;;4.74;100.00
498;BME280;39559;48.630;9.162;2023-04-07T06:40:18;97280.75;;;4.86;100.00
498;BME280;39559;48.630;9.162;2023-04-07T06:42:43;97276.44;;;4.87;100.00
498;BME280;39559;48.630;9.162;2023-04-07T06:45:10;97280.28;;;5.06;100.00
498;BME280;39559;48.630;9.162;2023-04-07T06:49:39;97280.94;;;5.14;100.00
498;BME280;39559;48.630;9.162;2023-04-07T06:52:05;97274.16;;;5.12;100.00
498;BME280;39559;48.630;9.162;2023-04-07T06:54:31;97279.84;;;5.25;100.00
498;BME280;39559;48.630;9.162;2023-04-07T06:56:56;97278.19;;;5.22;100.00
498;BME280;39559;48.630;9.162;2023-04-07T06:59:22;97268.88;;;5.51;100.00
498;BME280;39559;48.630;9.162;2023-04-07T07:01:47;97270.75;;;5.46;100.00
498;BME280;39559;48.630;9.162;2023-04-07T07:04:13;97273.94;;;5.54;100.00
498;BME280;39559;48.630;9.162;2023-04-07T07:06:39;97276.78;;;5.77;100.00
498;BME280;39559;48.630;9.162;2023-04-07T07:09:05;97268.50;;;5.66;100.00
498;BME280;39559;48.630;9.162;2023-04-07T07:13:39;97271.78;;;5.71;100.00
498;BME280;39559;48.630;9.162;2023-04-07T07:16:05;97268.94;;;5.82;100.00
498;BME280;39559;48.630;9.162;2023-04-07T07:18:30;97278.88;;;5.94;100.00
498;BME280;39559;48.630;9.162;2023-04-07T07:20:56;97272.94;;;6.24;100.00
498;BME280;39559;48.630;9.162;2023-04-07T07:23:21;97266.16;;;6.21;100.00
498;BME280;39559;48.630;9.162;2023-04-07T07:25:47;97281.66;;;5.87;100.00
498;BME280;39559;48.630;9.162;2023-04-07T07:28:12;97282.25;;;5.98;100.00
498;BME280;39559;48.630;9.162;2023-04-07T07:30:39;97280.91;;;6.16;100.00
498;BME280;39559;48.630;9.162;2023-04-07T07:33:07;97279.13;;;6.48;100.00
498;BME280;39559;48.630;9.162;2023-04-07T07:37:38;97279.94;;;6.78;100.00
498;BME280;39559;48.630;9.162;2023-04-07T07:40:04;97277.75;;;6.92;100.00
498;BME280;39559;48.630;9.162;2023-04-07T07:42:30;97279.13;;;6.76;100.00
498;BME280;39559;48.630;9.162;2023-04-07T07:44:56;97275.84;;;6.99;100.00
498;BME280;39559;48.630;9.162;2023-04-07T07:47:22;97276.38;;;7.09;100.00
498;BME280;39559;48.630;9.162;2023-04-07T07:49:48;97271.03;;;6.88;100.00
498;BME280;39559;48.630;9.162;2023-04-07T07:52:14;97272.94;;;7.10;100.00
498;BME280;39559;48.630;9.162;2023-04-07T07:54:40;97275.41;;;7.13;100.00
498;BME280;39559;48.630;9.162;2023-04-07T07:57:05;97277.00;;;7.17;100.00
498;BME280;39559;48.630;9.162;2023-04-07T08:01:39;97274.69;;;7.35;100.00
498;BME280;39559;48.630;9.162;2023-04-07T08:04:04;97279.00;;;7.61;100.00
498;BME280;39559;48.630;9.162;2023-04-07T08:06:30;97271.88;;;7.67;100.00
498;BME280;39559;48.630;9.162;2023-04-07T08:08:56;97280.47;;;7.43;100.00
498;BME280;39559;48.630;9.162;2023-04-07T08:11:21;97277.25;;;7.61;100.00
498;BME280;39559;48.630;9.162;2023-04-07T08:13:47;97277.22;;;7.63;100.00
498;BME280;39559;48.630;9.162;2023-04-07T08:16:12;97277.13;;;7.66;100.00
498;BME280;39559;48.630;9.162;2023-04-07T08:18:38;97279.19;;;7.80;100.00
498;BME280;39559;48.630;9.162;2023-04-07T08:21:04;97285.03;;;8.10;100.00
498;BME280;39559;48.630;9.162;2023-04-07T08:25:38;97293.09;;;8.26;100.00
498;BME280;39559;48.630;9.162;2023-04-07T08:28:06;97288.22;;;8.42;100.00
498;BME280;39559;48.630;9.162;2023-04-07T08:30:32;97289.06;;;8.66;100.00
498;BME280;39559;48.630;9.162;2023-04-07T08:32:57;97283.94;;;9.09;100.00
498;BME280;39559;48.630;9.162;2023-04-07T08:35:23;97292.94;;;9.43;100.00
498;BME280;39559;48.630;9.162;2023-04-07T08:37:48;97284.06;;;9.48;100.00
498;BME280;39559;48.630;9.162;2023-04-07T08:40:14;97291.75;;;9.72;100.00
498;BME280;39559;48.630;9.162;2023-04-07T08:42:47;97288.06;;;9.96;99.55
498;BME280;39559;48.630;9.162;2023-04-07T08:45:16;97288.00;;;9.98;98.22
498;BME280;39559;48.630;9.162;2023-04-07T08:49:39;97298.06;;;8.56;99.78
498;BME280;39559;48.630;9.162;2023-04-07T08:52:11;97292.50;;;8.89;100.00
498;BME280;39559;48.630;9.162;2023-04-07T08:54:37;97289.38;;;9.66;100.00
498;BME280;39559;48.630;9.162;2023-04-07T08:57:03;97286.47;;;9.94;100.00
498;BME280;39559;48.630;9.162;2023-04-07T08:59:30;97289.59;;;10.80;100.00
498;BME280;39559;48.630;9.162;2023-04-07T09:01:58;97293.84;;;11.00;93.58
498;BME280;39559;48.630;9.162;2023-04-07T09:04:24;97294.59;;;10.84;93.85
498;BME280;39559;48.630;9.162;2023-04-07T09:06:49;97288.94;;;9.97;89.68
498;BME280;39559;48.630;9.162;2023-04-07T09:09:15;97289.38;;;11.21;99.24
498;BME280;39559;48.630;9.162;2023-04-07T09:13:37;97293.72;;;11.20;94.86
498;BME280;39559;48.630;9.162;2023-04-07T09:16:02;97285.97;;;11.55;93.11
498;BME280;39559;48.630;9.162;2023-04-07T09:18:28;97290.16;;;11.23;89.31
498;BME280;39559;48.630;9.162;2023-04-07T09:21:04;97281.91;;;11.67;90.20
498;BME280;39559;48.630;9.162;2023-04-07T09:23:36;97277.53;;;11.32;89.67
498;BME280;39559;48.630;9.162;2023-04-07T09:28:45;97278.72;;;10.71;81.21
498;BME280;39559;48.630;9.162;2023-04-07T09:31:11;97279.94;;;10.64;82.89
498;BME280;39559;48.630;9.162;2023-04-07T09:33:36;97282.59;;;10.63;85.85
498;BME280;39559;48.630;9.162;2023-04-07T09:37:36;97282.84;;;10.37;81.05
498;BME280;39559;48.630;9.162;2023-04-07T09:40:02;97286.09;;;10.22;83.36
498;BME280;39559;48.630;9.162;2023-04-07T09:42:28;97279.94;;;10.64;82.47
498;BME280;39559;48.630;9.162;2023-04-07T09:44:59;97278.75;;;10.89;82.52
498;BME280;39559;48.630;9.162;2023-04-07T09:47:30;97279.00;;;11.21;79.58
498;BME280;39559;48.630;9.162;2023-04-07T09:49:56;97280.78;;;11.55;78.16
498;BME280;39559;48.630;9.162;2023-04-07T09:52:50;97276.91;;;11.10;78.60
498;BME280;39559;48.630;9.162;2023-04-07T09:55:19;97277.88;;;10.90;84.34
498;BME280;39559;48.630;9.162;2023-04-07T09:57:48;97275.50;;;11.39;76.89
498;BME280;39559;48.630;9.162;2023-04-07T10:01:35;97275.00;;;11.66;75.64
498;BME280;39559;48.630;9.162;2023-04-07T10:04:02;97265.94;;;11.57;77.52
498;BME280;39559;48.630;9.162;2023-04-07T10:06:28;97269.06;;;11.81;81.36
498;BME280;39559;48.630;9.162;2023-04-07T10:08:55;97268.66;;;11.89;76.27
498;BME280;39559;48.630;9.162;2023-04-07T10:11:20;97274.94;;;12.02;73.62
498;BME280;39559;48.630;9.162;2023-04-07T10:13:46;97266.28;;;11.49;73.53
498;BME280;39559;48.630;9.162;2023-04-07T10:16:12;97264.13;;;12.10;76.65
498;BME280;39559;48.630;9.162;2023-04-07T10:18:38;97264.25;;;11.91;75.47
498;BME280;39559;48.630;9.162;2023-04-07T10:21:06;97268.44;;;11.59;72.54
498;BME280;39559;48.630;9.162;2023-04-07T10:25:35;97265.41;;;10.97;74.54
498;BME280;39559;48.630;9.162;2023-04-07T10:28:06;97261.31;;;11.62;75.97
498;BME280;39559;48.630;9.162;2023-04-07T10:30:33;97265.81;;;11.06;72.31
498;BME280;39559;48.630;9.162;2023-04-07T10:32:59;97270.69;;;11.31;73.17
498;BME280;39559;48.630;9.162;2023-04-07T10:35:25;97267.06;;;11.34;73.41
498;BME280;39559;48.630;9.162;2023-04-07T10:40:32;97266.69;;;12.27;74.98
498;BME280;39559;48.630;9.162;2023-04-07T10:42:58;97261.53;;;12.59;72.64
498;BME280;39559;48.630;9.162;2023-04-07T10:45:50;97261.31;;;12.31;69.73
498;BME280;39559;48.630;9.162;2023-04-07T10:49:34;97268.03;;;11.84;68.60
498;BME280;39559;48.630;9.162;2023-04-07T10:54:39;97267.63;;;12.58;67.79
498;BME280;39559;48.630;9.162;2023-04-07T10:57:06;97276.03;;;12.32;66.29
498;BME280;39559;48.630;9.162;2023-04-07T10:59:35;97271.34;;;12.05;69.49
498;BME280;39559;48.630;9.162;2023-04-07T11:04:43;97288.41;;;11.58;71.54
498;BME280;39559;48.630;9.162;2023-04-07T11:07:10;97299.47;;;10.13;74.32
498;BME280;39559;48.630;9.162;2023-04-07T11:09:36;97307.00;;;9.37;75.83
498;BME280;39559;48.630;9.162;2023-04-07T11:13:42;97313.69;;;8.76;83.77
498;BME280;39559;48.630;9.162;2023-04-07T11:16:08;97315.72;;;8.68;83.53
498;BME280;39559;48.630;9.162;2023-04-07T11:18:35;97305.72;;;8.59;88.26
498;BME280;39559;48.630;9.162;2023-04-07T11:21:02;97306.06;;;8.50;87.53
498;BME280;39559;48.630;9.162;2023-04-07T11:23:43;97311.00;;;8.56;86.83
498;BME280;39559;48.630;9.162;2023-04-07T11:26:11;97304.13;;;8.55;84.11
498;BME280;39559;48.630;9.162;2023-04-07T11:28:47;97309.63;;;8.69;85.93
498;BME280;39559;48.630;9.162;2023-04-07T11:31:27;97314.78;;;8.93;91.32
498;BME280;39559;48.630;9.162;2023-04-07T11:34:02;97322.16;;;8.80;94.77
498;BME280;39559;48.630;9.162;2023-04-07T11:37:31;97320.72;;;8.73;100.00
498;BME280;39559;48.630;9.162;2023-04-07T11:39:57;97322.13;;;8.81;100.00
498;BME280;39559;48.630;9.162;2023-04-07T11:42:37;97322.38;;;8.97;100.00
498;BME280;39559;48.630;9.162;2023-04-07T11:45:04;97321.47;;;8.98;100.00
498;BME280;39559;48.630;9.162;2023-04-07T11:47:38;97332.19;;;8.89;100.00
498;BME280;39559;48.630;9.162;2023-04-07T11:50:04;97331.19;;;8.93;100.00
498;BME280;39559;48.630;9.162;2023-04-07T11:52:46;97335.38;;;8.96;100.00
498;BME280;39559;48.630;9.162;2023-04-07T11:55:19;97336.19;;;8.74;100.00
498;BME280;39559;48.630;9.162;2023-04-07T11:57:46;97339.91;;;8.67;100.00
498;BME280;39559;48.630;9.162;2023-04-07T12:01:39;97334.03;;;8.86;100.00
498;BME280;39559;48.630;9.162;2023-04-07T12:04:12;97335.75;;;9.09;100.00
498;BME280;39559;48.630;9.162;2023-04-07T12:06:40;97339.78;;;8.94;100.00
498;BME280;39559;48.630;9.162;2023-04-07T12:09:08;97341.75;;;9.09;100.00
498;BME280;39559;48.630;9.162;2023-04-07T12:11:34;97338.84;;;8.95;100.00
498;BME280;39559;48.630;9.162;2023-04-07T12:14:01;97335.50;;;8.93;100.00
498;BME280;39559;48.630;9.162;2023-04-07T12:16:29;97336.09;;;8.99;100.00
498;BME280;39559;48.630;9.162;2023-04-07T12:18:55;97343.09;;;8.97;100.00
498;BME280;39559;48.630;9.162;2023-04-07T12:21:21;97340.69;;;9.15;100.00
498;BME280;39559;48.630;9.162;2023-04-07T12:25:27;97346.34;;;9.47;100.00
498;BME280;39559;48.630;9.162;2023-04-07T12:27:53;97347.84;;;9.52;100.00
498;BME280;39559;48.630;9.162;2023-04-07T12:30:18;97353.47;;;9.19;100.00
498;BME280;39559;48.630;9.162;2023-04-07T12:32:44;97358.28;;;9.29;100.00
498;BME280;39559;48.630;9.162;2023-04-07T12:35:09;97357.66;;;9.22;100.00
498;BME280;39559;48.630;9.162;2023-04-07T12:37:35;97354.53;;;8.92;100.00
498;BME280;39559;48.630;9.162;2023-04-07T12:40:01;97360.81;;;9.08;100.00
498;BME280;39559;48.630;9.162;2023-04-07T12:42:27;97357.09;;;9.15;100.00
498;BME280;39559;48.630;9.162;2023-04-07T12:44:52;97356.00;;;9.21;100.00
498;BME280;39559;48.630;9.162;2023-04-07T12:49:25;97352.72;;;8.94;100.00
498;BME280;39559;48.630;9.162;2023-04-07T12:51:51;97349.59;;;9.08;100.00
498;BME280;39559;48.630;9.162;2023-04-07T12:54:17;97348.53;;;9.13;100.00
498;BME280;39559;48.630;9.162;2023-04-07T12:56:43;97352.69;;;8.95;100.00
498;BME280;39559;48.630;9.162;2023-04-07T12:59:08;97354.41;;;8.71;100.00
498;BME280;39559;48.630;9.162;2023-04-07T13:01:34;97344.22;;;8.90;100.00
498;BME280;39559;48.630;9.162;2023-04-07T13:03:59;97355.44;;;8.67;100.00
498;BME280;39559;48.630;9.162;2023-04-07T13:06:26;97340.44;;;8.77;100.00
498;BME280;39559;48.630;9.162;2023-04-07T13:08:51;97345.88;;;8.69;100.00
498;BME280;39559;48.630;9.162;2023-04-07T13:13:24;97348.13;;;8.55;100.00
498;BME280;39559;48.630;9.162;2023-04-07T13:15:49;97340.34;;;8.78;100.00
498;BME280;39559;48.630;9.162;2023-04-07T13:18:15;97341.63;;;8.68;100.00
498;BME280;39559;48.630;9.162;2023-04-07T13:20:40;97344.03;;;8.95;100.00
498;BME280;39559;48.630;9.162;2023-04-07T13:23:06;97344.19;;;8.92;100.00
498;BME280;39559;48.630;9.162;2023-04-07T13:25:32;97337.81;;;9.00;100.00
498;BME280;39559;48.630;9.162;2023-04-07T13:27:57;97333.78;;;9.15;100.00
498;BME280;39559;48.630;9.162;2023-04-07T13:30:24;97334.13;;;9.28;100.00
498;BME280;39559;48.630;9.162;2023-04-07T13:32:50;97332.28;;;9.52;100.00
498;BME280;39559;48.630;9.162;2023-04-07T13:37:22;97324.97;;;9.62;98.54
498;BME280;39559;48.630;9.162;2023-04-07T13:39:47;97331.13;;;9.80;100.00
498;BME280;39559;48.630;9.162;2023-04-07T13:42:13;97333.00;;;9.76;100.00
498;BME280;39559;48.630;9.162;2023-04-07T13:44:43;97321.78;;;9.96;100.00
498;BME280;39559;48.630;9.162;2023-04-07T13:47:14;97332.84;;;9.81;95.70
498;BME280;39559;48.630;9.162;2023-04-07T13:49:47;97333.22;;;9.92;92.97
498;BME280;39559;48.630;9.162;2023-04-07T13:52:13;97327.41;;;10.08;91.45
498;BME280;39559;48.630;9.162;2023-04-07T13:54:39;97330.13;;;9.84;92.35
498;BME280;39559;48.630;9.162;2023-04-07T13:57:05;97328.00;;;10.13;98.28
498;BME280;39559;48.630;9.162;2023-04-07T14:01:19;97327.53;;;10.24;94.23
498;BME280;39559;48.630;9.162;2023-04-07T14:03:46;97321.88;;;10.55;100.00
498;BME280;39559;48.630;9.162;2023-04-07T14:06:13;97329.31;;;10.82;98.57
498;BME280;39559;48.630;9.162;2023-04-07T14:08:39;97327.34;;;10.87;94.75
498;BME280;39559;48.630;9.162;2023-04-07T14:11:04;97322.22;;;10.85;94.47
498;BME280;39559;48.630;9.162;2023-04-07T14:13:30;97327.50;;;10.84;94.75
498;BME280;39559;48.630;9.162;2023-04-07T14:15:55;97324.69;;;10.69;96.15
498;BME280;39559;48.630;9.162;2023-04-07T14:18:21;97324.84;;;10.66;97.89
498;BME280;39559;48.630;9.162;2023-04-07T14:20:48;97322.28;;;10.84;100.00
498;BME280;39559;48.630;9.162;2023-04-07T14:25:17;97325.09;;;10.98;98.13
498;BME280;39559;48.630;9.162;2023-04-07T14:27:42;97330.53;;;11.30;99.03
498;BME280;39559;48.630;9.162;2023-04-07T14:30:08;97335.88;;;11.27;100.00
498;BME280;39559;48.630;9.162;2023-04-07T14:32:34;97323.63;;;11.11;100.00
498;BME280;39559;48.630;9.162;2023-04-07T14:35:00;97332.69;;;11.03;100.00
498;BME280;39559;48.630;9.162;2023-04-07T14:37:27;97332.69;;;10.84;100.00
498;BME280;39559;48.630;9.162;2023-04-07T14:39:53;97329.44;;;10.98;100.00
498;BME280;39559;48.630;9.162;2023-04-07T14:42:19;97333.03;;;10.76;100.00
498;BME280;39559;48.630;9.162;2023-04-07T14:44:45;97337.72;;;10.49;99.03
498;BME280;39559;48.630;9.162;2023-04-07T14:49:15;97329.56;;;10.37;100.00